sensor_id;sensor_type;location;lat;lon;timestamp;temperature;humidity
12872;DHT22;6504;53.766;9.626;2022-07-05T00:01:03;15.70;99.90
12872;DHT22;6504;53.766;9.626;2022-07-05T00:03:32;15.60;99.90
12872;DHT22;6504;53.766;9.626;2022-07-05T00:06:00;15.60;99.90
12872;DHT22;6504;53.766;9.626;2022-07-05T00:08:28;15.60;99.90
12872;DHT22;6504;53.766;9.626;2022-07-05T00:11:00;15.50;99.90
12872;DHT22;6504;53.766;9.626;2022-07-05T00:13:28;15.50;99.90
12872;DHT22;6504;53.766;9.626;2022-07-05T00:16:00;15.50;99.90
12872;DHT22;6504;53.766;9.626;2022-07-05T00:18:28;15.50;99.90
12872;DHT22;6504;53.766;9.626;2022-07-05T00:20:56;15.50;99.90
12872;DHT22;6504;53.766;9.626;2022-07-05T00:23:24;15.50;99.90
12872;DHT22;6504;53.766;9.626;2022-07-05T00:25:52;15.50;99.90
12872;DHT22;6504;53.766;9.626;2022-07-05T00:28:25;15.50;99.90
12872;DHT22;6504;53.766;9.626;2022-07-05T00:30:53;15.50;99.90
12872;DHT22;6504;53.766;9.626;2022-07-05T00:33:24;15.50;99.90
12872;DHT22;6504;53.766;9.626;2022-07-05T00:35:52;15.40;99.90
12872;DHT22;6504;53.766;9.626;2022-07-05T00:38:20;15.40;99.90
12872;DHT22;6504;53.766;9.626;2022-07-05T00:40:49;15.40;99.90
12872;DHT22;6504;53.766;9.626;2022-07-05T00:43:17;15.40;99.90
12872;DHT22;6504;53.766;9.626;2022-07-05T00:45:46;15.40;99.90
12872;DHT22;6504;53.766;9.626;2022-07-05T00:48:17;15.40;99.90
12872;DHT22;6504;53.766;9.626;2022-07-05T00:50:45;15.40;99.90
12872;DHT22;6504;53.766;9.626;2022-07-05T00:53:13;15.40;99.90
12872;DHT22;6504;53.766;9.626;2022-07-05T00:55:42;15.40;99.90
12872;DHT22;6504;53.766;9.626;2022-07-05T00:58:11;15.40;99.90
12872;DHT22;6504;53.766;9.626;2022-07-05T01:00:42;15.30;99.90
12872;DHT22;6504;53.766;9.626;2022-07-05T01:03:11;15.30;99.90
12872;DHT22;6504;53.766;9.626;2022-07-05T01:05:43;15.30;99.90
12872;DHT22;6504;53.766;9.626;2022-07-05T01:08:13;15.30;99.90
12872;DHT22;6504;53.766;9.626;2022-07-05T01:10:44;15.30;99.90
12872;DHT22;6504;53.766;9.626;2022-07-05T01:13:13;15.20;99.90
12872;DHT22;6504;53.766;9.626;2022-07-05T01:15:42;15.20;99.90
12872;DHT22;6504;53.766;9.626;2022-07-05T01:18:14;15.20;99.90
12872;DHT22;6504;53.766;9.626;2022-07-05T01:20:42;15.20;99.90
12872;DHT22;6504;53.766;9.626;2022-07-05T01:23:15;15.10;99.90
12872;DHT22;6504;53.766;9.626;2022-07-05T01:25:44;15.10;99.90
12872;DHT22;6504;53.766;9.626;2022-07-05T01:28:16;15.10;99.90
12872;DHT22;6504;53.766;9.626;2022-07-05T01:30:44;15.10;99.90
12872;DHT22;6504;53.766;9.626;2022-07-05T01:33:13;15.10;99.90
12872;DHT22;6504;53.766;9.626;2022-07-05T01:35:41;15.00;99.90
12872;DHT22;6504;53.766;9.626;2022-07-05T01:38:11;15.00;99.90
12872;DHT22;6504;53.766;9.626;2022-07-05T01:40:43;15.00;99.90
12872;DHT22;6504;53.766;9.626;2022-07-05T01:43:12;15.00;99.90
12872;DHT22;6504;53.766;9.626;2022-07-05T01:45:40;15.00;99.90
12872;DHT22;6504;53.766;9.626;2022-07-05T01:48:10;15.00;99.90
12872;DHT22;6504;53.766;9.626;2022-07-05T01:50:44;14.90;99.90
12872;DHT22;6504;53.766;9.626;2022-07-05T01:53:17;14.90;99.90
12872;DHT22;6504;53.766;9.626;2022-07-05T01:55:50;14.90;99.90
12872;DHT22;6504;53.766;9.626;2022-07-05T01:58:18;14.90;99.90
12872;DHT22;6504;53.766;9.626;2022-07-05T02:00:47;14.90;99.90
12872;DHT22;6504;53.766;9.626;2022-07-05T02:03:21;14.90;99.90
12872;DHT22;6504;53.766;9.626;2022-07-05T02:06:09;14.90;99.90
12872;DHT22;6504;53.766;9.626;2022-07-05T02:08:37;14.90;99.90
12872;DHT22;6504;53.766;9.626;2022-07-05T02:11:07;14.90;99.90
12872;DHT22;6504;53.766;9.626;2022-07-05T02:13:35;14.80;99.90
12872;DHT22;6504;53.766;9.626;2022-07-05T02:16:06;14.80;99.90
12872;DHT22;6504;53.766;9.626;2022-07-05T02:18:34;14.80;99.90
12872;DHT22;6504;53.766;9.626;2022-07-05T02:21:05;14.80;99.90
12872;DHT22;6504;53.766;9.626;2022-07-05T02:23:33;14.80;99.90
12872;DHT22;6504;53.766;9.626;2022-07-05T02:26:07;14.70;99.90
12872;DHT22;6504;53.766;9.626;2022-07-05T02:28:35;14.70;99.90
12872;DHT22;6504;53.766;9.626;2022-07-05T02:31:03;14.70;99.90
12872;DHT22;6504;53.766;9.626;2022-07-05T02:33:31;14.70;99.90
12872;DHT22;6504;53.766;9.626;2022-07-05T02:36:06;14.70;99.90
12872;DHT22;6504;53.766;9.626;2022-07-05T02:38:35;14.70;99.90
12872;DHT22;6504;53.766;9.626;2022-07-05T02:41:05;14.70;99.90
12872;DHT22;6504;53.766;9.626;2022-07-05T02:43:38;14.60;99.90
12872;DHT22;6504;53.766;9.626;2022-07-05T02:46:07;14.60;99.90
12872;DHT22;6504;53.766;9.626;2022-07-05T02:48:39;14.60;99.90
12872;DHT22;6504;53.766;9.626;2022-07-05T02:51:08;14.60;99.90
12872;DHT22;6504;53.766;9.626;2022-07-05T02:53:36;14.60;99.90
12872;DHT22;6504;53.766;9.626;2022-07-05T02:56:05;14.50;99.90
12872;DHT22;6504;53.766;9.626;2022-07-05T02:58:36;14.50;99.90
12872;DHT22;6504;53.766;9.626;2022-07-05T03:01:04;14.50;99.90
12872;DHT22;6504;53.766;9.626;2022-07-05T03:03:35;14.50;99.90
12872;DHT22;6504;53.766;9.626;2022-07-05T03:06:04;14.50;99.90
12872;DHT22;6504;53.766;9.626;2022-07-05T03:08:34;14.50;99.90
12872;DHT22;6504;53.766;9.626;2022-07-05T03:11:02;14.40;99.90
12872;DHT22;6504;53.766;9.626;2022-07-05T03:13:35;14.50;99.90
12872;DHT22;6504;53.766;9.626;2022-07-05T03:16:04;14.50;99.90
12872;DHT22;6504;53.766;9.626;2022-07-05T03:18:36;14.40;99.90
12872;DHT22;6504;53.766;9.626;2022-07-05T03:21:05;14.40;99.90
12872;DHT22;6504;53.766;9.626;2022-07-05T03:23:33;14.40;99.90
12872;DHT22;6504;53.766;9.626;2022-07-05T03:26:01;14.40;99.90
12872;DHT22;6504;53.766;9.626;2022-07-05T03:28:29;14.40;99.90
12872;DHT22;6504;53.766;9.626;2022-07-05T03:31:02;14.40;99.90
12872;DHT22;6504;53.766;9.626;2022-07-05T03:33:30;14.40;99.90
12872;DHT22;6504;53.766;9.626;2022-07-05T03:35:58;14.40;99.90
12872;DHT22;6504;53.766;9.626;2022-07-05T03:38:26;14.40;99.90
12872;DHT22;6504;53.766;9.626;2022-07-05T03:40:54;14.40;99.90
12872;DHT22;6504;53.766;9.626;2022-07-05T03:43:22;14.40;99.90
12872;DHT22;6504;53.766;9.626;2022-07-05T03:45:52;14.40;99.90
12872;DHT22;6504;53.766;9.626;2022-07-05T03:48:22;14.40;99.90
12872;DHT22;6504;53.766;9.626;2022-07-05T03:51:08;14.40;99.90
12872;DHT22;6504;53.766;9.626;2022-07-05T03:53:36;14.40;99.90
12872;DHT22;6504;53.766;9.626;2022-07-05T03:56:04;14.40;99.90
12872;DHT22;6504;53.766;9.626;2022-07-05T03:58:32;14.40;99.90
12872;DHT22;6504;53.766;9.626;2022-07-05T04:01:00;14.40;99.90
12872;DHT22;6504;53.766;9.626;2022-07-05T04:03:32;14.40;99.90
12872;DHT22;6504;53.766;9.626;2022-07-05T04:06:07;14.40;99.90
12872;DHT22;6504;53.766;9.626;2022-07-05T04:08:38;14.30;99.90
12872;DHT22;6504;53.766;9.626;2022-07-05T04:11:06;14.30;99.90
12872;DHT22;6504;53.766;9.626;2022-07-05T04:13:37;14.30;99.90
12872;DHT22;6504;53.766;9.626;2022-07-05T04:16:05;14.30;99.90
12872;DHT22;6504;53.766;9.626;2022-07-05T04:18:38;14.30;99.90
12872;DHT22;6504;53.766;9.626;2022-07-05T04:21:06;14.30;99.90
12872;DHT22;6504;53.766;9.626;2022-07-05T04:23:35;14.30;99.90
12872;DHT22;6504;53.766;9.626;2022-07-05T04:26:04;14.30;99.90
12872;DHT22;6504;53.766;9.626;2022-07-05T04:28:32;14.30;99.90
12872;DHT22;6504;53.766;9.626;2022-07-05T04:31:00;14.30;99.90
12872;DHT22;6504;53.766;9.626;2022-07-05T04:33:31;14.40;99.90
12872;DHT22;6504;53.766;9.626;2022-07-05T04:36:00;14.40;99.90
12872;DHT22;6504;53.766;9.626;2022-07-05T04:38:31;14.40;99.90
12872;DHT22;6504;53.766;9.626;2022-07-05T04:40:59;14.40;99.90
12872;DHT22;6504;53.766;9.626;2022-07-05T04:43:27;14.50;99.90
12872;DHT22;6504;53.766;9.626;2022-07-05T04:45:56;14.50;99.90
12872;DHT22;6504;53.766;9.626;2022-07-05T04:48:24;14.50;99.90
12872;DHT22;6504;53.766;9.626;2022-07-05T04:50:52;14.60;99.90
12872;DHT22;6504;53.766;9.626;2022-07-05T04:53:24;14.60;99.90
12872;DHT22;6504;53.766;9.626;2022-07-05T04:55:52;14.70;99.90
12872;DHT22;6504;53.766;9.626;2022-07-05T04:58:23;14.70;99.90
12872;DHT22;6504;53.766;9.626;2022-07-05T05:00:51;14.80;99.90
12872;DHT22;6504;53.766;9.626;2022-07-05T05:03:19;14.80;99.90
12872;DHT22;6504;53.766;9.626;2022-07-05T05:05:48;14.90;99.90
12872;DHT22;6504;53.766;9.626;2022-07-05T05:08:16;14.90;99.90
12872;DHT22;6504;53.766;9.626;2022-07-05T05:10:45;14.90;99.90
12872;DHT22;6504;53.766;9.626;2022-07-05T05:13:18;15.00;99.90
12872;DHT22;6504;53.766;9.626;2022-07-05T05:15:46;14.90;99.90
12872;DHT22;6504;53.766;9.626;2022-07-05T05:18:17;15.00;99.90
12872;DHT22;6504;53.766;9.626;2022-07-05T05:20:47;15.00;99.90
12872;DHT22;6504;53.766;9.626;2022-07-05T05:23:16;15.00;99.90
12872;DHT22;6504;53.766;9.626;2022-07-05T05:25:48;15.00;99.90
12872;DHT22;6504;53.766;9.626;2022-07-05T05:28:16;15.00;99.90
12872;DHT22;6504;53.766;9.626;2022-07-05T05:30:47;15.00;99.90
12872;DHT22;6504;53.766;9.626;2022-07-05T05:33:15;15.00;99.90
12872;DHT22;6504;53.766;9.626;2022-07-05T05:35:44;15.00;99.90
12872;DHT22;6504;53.766;9.626;2022-07-05T05:38:12;15.10;99.90
12872;DHT22;6504;53.766;9.626;2022-07-05T05:40:40;15.10;99.90
12872;DHT22;6504;53.766;9.626;2022-07-05T05:43:15;15.10;99.90
12872;DHT22;6504;53.766;9.626;2022-07-05T05:45:43;15.10;99.90
12872;DHT22;6504;53.766;9.626;2022-07-05T05:48:14;15.20;99.90
12872;DHT22;6504;53.766;9.626;2022-07-05T05:50:42;15.20;99.90
12872;DHT22;6504;53.766;9.626;2022-07-05T05:53:10;15.20;99.90
12872;DHT22;6504;53.766;9.626;2022-07-05T05:55:41;15.20;99.90
12872;DHT22;6504;53.766;9.626;2022-07-05T05:58:15;15.30;99.90
12872;DHT22;6504;53.766;9.626;2022-07-05T06:00:47;15.30;99.90
12872;DHT22;6504;53.766;9.626;2022-07-05T06:03:24;15.40;99.90
12872;DHT22;6504;53.766;9.626;2022-07-05T06:05:52;15.40;99.90
12872;DHT22;6504;53.766;9.626;2022-07-05T06:08:21;15.50;99.90
12872;DHT22;6504;53.766;9.626;2022-07-05T06:10:52;15.50;99.90
12872;DHT22;6504;53.766;9.626;2022-07-05T06:13:31;15.60;99.90
12872;DHT22;6504;53.766;9.626;2022-07-05T06:15:59;15.60;99.90
12872;DHT22;6504;53.766;9.626;2022-07-05T06:18:30;15.70;99.90
12872;DHT22;6504;53.766;9.626;2022-07-05T06:20:58;15.70;99.90
12872;DHT22;6504;53.766;9.626;2022-07-05T06:23:27;15.80;99.90
12872;DHT22;6504;53.766;9.626;2022-07-05T06:25:56;15.80;99.90
12872;DHT22;6504;53.766;9.626;2022-07-05T06:28:24;15.90;99.90
12872;DHT22;6504;53.766;9.626;2022-07-05T06:30:53;15.90;99.90
12872;DHT22;6504;53.766;9.626;2022-07-05T06:33:24;16.00;99.90
12872;DHT22;6504;53.766;9.626;2022-07-05T06:35:52;16.10;99.90
12872;DHT22;6504;53.766;9.626;2022-07-05T06:38:22;16.10;99.90
12872;DHT22;6504;53.766;9.626;2022-07-05T06:40:50;16.20;99.90
12872;DHT22;6504;53.766;9.626;2022-07-05T06:43:18;16.20;99.90
12872;DHT22;6504;53.766;9.626;2022-07-05T06:45:49;16.30;99.90
12872;DHT22;6504;53.766;9.626;2022-07-05T06:48:18;16.30;99.90
12872;DHT22;6504;53.766;9.626;2022-07-05T06:50:49;16.40;99.90
12872;DHT22;6504;53.766;9.626;2022-07-05T06:53:17;16.60;99.90
12872;DHT22;6504;53.766;9.626;2022-07-05T06:55:48;16.60;99.90
12872;DHT22;6504;53.766;9.626;2022-07-05T06:58:22;16.70;99.90
12872;DHT22;6504;53.766;9.626;2022-07-05T07:00:50;16.80;99.90
12872;DHT22;6504;53.766;9.626;2022-07-05T07:03:46;16.80;99.90
12872;DHT22;6504;53.766;9.626;2022-07-05T07:06:34;16.90;99.90
12872;DHT22;6504;53.766;9.626;2022-07-05T07:09:06;17.00;99.90
12872;DHT22;6504;53.766;9.626;2022-07-05T07:11:45;17.10;99.90
12872;DHT22;6504;53.766;9.626;2022-07-05T07:14:16;17.20;99.90
12872;DHT22;6504;53.766;9.626;2022-07-05T07:16:45;17.40;99.90
12872;DHT22;6504;53.766;9.626;2022-07-05T07:19:17;17.60;99.90
12872;DHT22;6504;53.766;9.626;2022-07-05T07:21:45;17.70;99.90
12872;DHT22;6504;53.766;9.626;2022-07-05T07:24:16;17.90;99.90
12872;DHT22;6504;53.766;9.626;2022-07-05T07:26:44;18.00;99.90
12872;DHT22;6504;53.766;9.626;2022-07-05T07:29:32;18.10;99.90
12872;DHT22;6504;53.766;9.626;2022-07-05T07:32:05;18.20;99.90
12872;DHT22;6504;53.766;9.626;2022-07-05T07:34:35;18.30;99.90
12872;DHT22;6504;53.766;9.626;2022-07-05T07:37:05;18.40;99.90
12872;DHT22;6504;53.766;9.626;2022-07-05T07:39:35;18.40;99.90
12872;DHT22;6504;53.766;9.626;2022-07-05T07:42:04;18.50;99.90
12872;DHT22;6504;53.766;9.626;2022-07-05T07:44:32;18.50;99.90
12872;DHT22;6504;53.766;9.626;2022-07-05T07:47:00;18.60;99.90
12872;DHT22;6504;53.766;9.626;2022-07-05T07:49:31;18.60;99.90
12872;DHT22;6504;53.766;9.626;2022-07-05T07:52:01;18.60;99.90
12872;DHT22;6504;53.766;9.626;2022-07-05T07:54:29;18.50;99.90
12872;DHT22;6504;53.766;9.626;2022-07-05T07:56:57;18.50;99.90
12872;DHT22;6504;53.766;9.626;2022-07-05T07:59:26;18.50;99.90
12872;DHT22;6504;53.766;9.626;2022-07-05T08:01:57;18.60;99.90
12872;DHT22;6504;53.766;9.626;2022-07-05T08:04:25;18.60;99.90
12872;DHT22;6504;53.766;9.626;2022-07-05T08:07:00;18.60;99.90
12872;DHT22;6504;53.766;9.626;2022-07-05T08:09:30;18.60;99.90
12872;DHT22;6504;53.766;9.626;2022-07-05T08:12:01;18.70;99.90
12872;DHT22;6504;53.766;9.626;2022-07-05T08:14:30;18.70;99.90
12872;DHT22;6504;53.766;9.626;2022-07-05T08:17:01;18.80;99.90
12872;DHT22;6504;53.766;9.626;2022-07-05T08:19:29;18.80;99.90
12872;DHT22;6504;53.766;9.626;2022-07-05T08:22:15;18.70;99.90
12872;DHT22;6504;53.766;9.626;2022-07-05T08:24:46;18.60;99.90
12872;DHT22;6504;53.766;9.626;2022-07-05T08:27:15;18.60;99.90
12872;DHT22;6504;53.766;9.626;2022-07-05T08:29:43;18.50;99.90
12872;DHT22;6504;53.766;9.626;2022-07-05T08:32:14;18.50;99.90
12872;DHT22;6504;53.766;9.626;2022-07-05T08:34:42;18.40;99.90
12872;DHT22;6504;53.766;9.626;2022-07-05T08:37:16;18.40;99.90
12872;DHT22;6504;53.766;9.626;2022-07-05T08:39:44;18.30;99.90
12872;DHT22;6504;53.766;9.626;2022-07-05T08:42:15;18.30;99.90
12872;DHT22;6504;53.766;9.626;2022-07-05T08:44:44;18.30;99.90
12872;DHT22;6504;53.766;9.626;2022-07-05T08:47:17;18.30;99.90
12872;DHT22;6504;53.766;9.626;2022-07-05T08:49:48;18.30;99.90
12872;DHT22;6504;53.766;9.626;2022-07-05T08:52:21;18.40;99.90
12872;DHT22;6504;53.766;9.626;2022-07-05T08:54:51;18.40;99.90
12872;DHT22;6504;53.766;9.626;2022-07-05T08:57:20;18.40;99.90
12872;DHT22;6504;53.766;9.626;2022-07-05T08:59:48;18.40;99.90
12872;DHT22;6504;53.766;9.626;2022-07-05T09:02:16;18.50;99.90
12872;DHT22;6504;53.766;9.626;2022-07-05T09:04:45;18.60;99.90
12872;DHT22;6504;53.766;9.626;2022-07-05T09:07:16;18.70;99.90
12872;DHT22;6504;53.766;9.626;2022-07-05T09:09:50;18.90;99.90
12872;DHT22;6504;53.766;9.626;2022-07-05T09:12:19;19.00;99.90
12872;DHT22;6504;53.766;9.626;2022-07-05T09:14:53;19.10;99.90
12872;DHT22;6504;53.766;9.626;2022-07-05T09:17:22;19.30;99.90
12872;DHT22;6504;53.766;9.626;2022-07-05T09:20:07;19.50;99.90
12872;DHT22;6504;53.766;9.626;2022-07-05T09:22:43;19.50;99.90
12872;DHT22;6504;53.766;9.626;2022-07-05T09:25:17;19.50;99.90
12872;DHT22;6504;53.766;9.626;2022-07-05T09:27:54;19.60;99.90
12872;DHT22;6504;53.766;9.626;2022-07-05T09:30:24;19.70;99.90
12872;DHT22;6504;53.766;9.626;2022-07-05T09:33:00;19.80;99.90
12872;DHT22;6504;53.766;9.626;2022-07-05T09:35:32;19.90;99.90
12872;DHT22;6504;53.766;9.626;2022-07-05T09:38:02;19.90;99.90
12872;DHT22;6504;53.766;9.626;2022-07-05T09:40:46;19.90;99.90
12872;DHT22;6504;53.766;9.626;2022-07-05T09:43:18;19.90;99.90
12872;DHT22;6504;53.766;9.626;2022-07-05T09:45:54;19.90;99.90
12872;DHT22;6504;53.766;9.626;2022-07-05T09:48:23;19.90;99.90
12872;DHT22;6504;53.766;9.626;2022-07-05T09:51:07;20.00;99.90
12872;DHT22;6504;53.766;9.626;2022-07-05T09:53:57;20.10;99.90
12872;DHT22;6504;53.766;9.626;2022-07-05T09:56:42;20.00;99.90
12872;DHT22;6504;53.766;9.626;2022-07-05T09:59:14;20.00;99.90
12872;DHT22;6504;53.766;9.626;2022-07-05T10:01:43;20.00;99.90
12872;DHT22;6504;53.766;9.626;2022-07-05T10:04:11;20.00;99.90
12872;DHT22;6504;53.766;9.626;2022-07-05T10:06:40;20.00;99.90
12872;DHT22;6504;53.766;9.626;2022-07-05T10:09:09;19.90;99.90
12872;DHT22;6504;53.766;9.626;2022-07-05T10:11:44;19.80;99.90
12872;DHT22;6504;53.766;9.626;2022-07-05T10:14:18;19.70;99.90
12872;DHT22;6504;53.766;9.626;2022-07-05T10:16:55;19.60;99.90
12872;DHT22;6504;53.766;9.626;2022-07-05T10:19:34;19.70;99.90
12872;DHT22;6504;53.766;9.626;2022-07-05T10:22:09;19.70;99.90
12872;DHT22;6504;53.766;9.626;2022-07-05T10:24:47;19.80;99.90
12872;DHT22;6504;53.766;9.626;2022-07-05T10:27:20;19.80;99.90
12872;DHT22;6504;53.766;9.626;2022-07-05T10:29:49;19.90;99.90
12872;DHT22;6504;53.766;9.626;2022-07-05T10:32:22;19.90;99.90
12872;DHT22;6504;53.766;9.626;2022-07-05T10:34:53;20.00;99.90
12872;DHT22;6504;53.766;9.626;2022-07-05T10:37:32;20.10;99.90
12872;DHT22;6504;53.766;9.626;2022-07-05T10:40:05;20.20;99.90
12872;DHT22;6504;53.766;9.626;2022-07-05T10:42:40;20.30;99.90
12872;DHT22;6504;53.766;9.626;2022-07-05T10:45:26;20.50;99.90
12872;DHT22;6504;53.766;9.626;2022-07-05T10:48:14;20.60;99.90
12872;DHT22;6504;53.766;9.626;2022-07-05T10:50:47;20.80;99.90
12872;DHT22;6504;53.766;9.626;2022-07-05T10:53:17;20.90;99.90
12872;DHT22;6504;53.766;9.626;2022-07-05T10:55:54;21.00;99.90
12872;DHT22;6504;53.766;9.626;2022-07-05T10:58:28;21.20;99.90
12872;DHT22;6504;53.766;9.626;2022-07-05T11:01:33;21.40;99.90
12872;DHT22;6504;53.766;9.626;2022-07-05T11:04:26;21.60;99.90
12872;DHT22;6504;53.766;9.626;2022-07-05T11:06:57;21.90;99.90
12872;DHT22;6504;53.766;9.626;2022-07-05T11:09:25;22.10;99.90
12872;DHT22;6504;53.766;9.626;2022-07-05T11:12:17;22.20;99.90
12872;DHT22;6504;53.766;9.626;2022-07-05T11:15:06;22.40;99.90
12872;DHT22;6504;53.766;9.626;2022-07-05T11:17:38;22.50;99.90
12872;DHT22;6504;53.766;9.626;2022-07-05T11:20:28;22.50;99.90
12872;DHT22;6504;53.766;9.626;2022-07-05T11:23:08;22.50;99.90
12872;DHT22;6504;53.766;9.626;2022-07-05T11:25:42;22.50;99.90
12872;DHT22;6504;53.766;9.626;2022-07-05T11:28:18;22.60;99.90
12872;DHT22;6504;53.766;9.626;2022-07-05T11:30:57;22.50;99.90
12872;DHT22;6504;53.766;9.626;2022-07-05T11:33:36;22.40;99.90
12872;DHT22;6504;53.766;9.626;2022-07-05T11:36:30;22.30;99.90
12872;DHT22;6504;53.766;9.626;2022-07-05T11:39:13;22.20;99.90
12872;DHT22;6504;53.766;9.626;2022-07-05T11:41:46;22.00;99.90
12872;DHT22;6504;53.766;9.626;2022-07-05T11:44:15;21.90;99.90
12872;DHT22;6504;53.766;9.626;2022-07-05T11:46:47;21.80;99.90
12872;DHT22;6504;53.766;9.626;2022-07-05T11:49:22;21.70;99.90
12872;DHT22;6504;53.766;9.626;2022-07-05T11:51:58;21.60;99.90
12872;DHT22;6504;53.766;9.626;2022-07-05T11:54:28;21.50;99.90
12872;DHT22;6504;53.766;9.626;2022-07-05T11:57:00;21.50;99.90
12872;DHT22;6504;53.766;9.626;2022-07-05T11:59:28;21.50;99.90
12872;DHT22;6504;53.766;9.626;2022-07-05T12:02:04;21.50;99.90
12872;DHT22;6504;53.766;9.626;2022-07-05T12:04:32;21.50;99.90
12872;DHT22;6504;53.766;9.626;2022-07-05T12:07:04;21.50;99.90
12872;DHT22;6504;53.766;9.626;2022-07-05T12:09:33;21.50;99.90
12872;DHT22;6504;53.766;9.626;2022-07-05T12:12:17;21.50;99.90
12872;DHT22;6504;53.766;9.626;2022-07-05T12:15:04;21.50;99.90
12872;DHT22;6504;53.766;9.626;2022-07-05T12:17:35;21.70;99.90
12872;DHT22;6504;53.766;9.626;2022-07-05T12:20:04;21.80;99.90
12872;DHT22;6504;53.766;9.626;2022-07-05T12:22:37;21.80;99.90
12872;DHT22;6504;53.766;9.626;2022-07-05T12:25:08;21.80;99.90
12872;DHT22;6504;53.766;9.626;2022-07-05T12:27:38;21.70;99.90
12872;DHT22;6504;53.766;9.626;2022-07-05T12:30:07;21.60;99.90
12872;DHT22;6504;53.766;9.626;2022-07-05T12:35:35;21.50;99.90
12872;DHT22;6504;53.766;9.626;2022-07-05T12:38:12;21.10;99.90
12872;DHT22;6504;53.766;9.626;2022-07-05T12:40:45;21.10;99.90
12872;DHT22;6504;53.766;9.626;2022-07-05T12:43:15;21.10;99.90
12872;DHT22;6504;53.766;9.626;2022-07-05T12:45:58;21.10;99.90
12872;DHT22;6504;53.766;9.626;2022-07-05T12:48:31;21.20;99.90
12872;DHT22;6504;53.766;9.626;2022-07-05T12:51:02;21.20;99.90
12872;DHT22;6504;53.766;9.626;2022-07-05T12:53:47;21.20;99.90
12872;DHT22;6504;53.766;9.626;2022-07-05T12:56:33;21.20;99.90
12872;DHT22;6504;53.766;9.626;2022-07-05T12:59:56;21.20;99.90
12872;DHT22;6504;53.766;9.626;2022-07-05T13:02:35;21.20;99.90
12872;DHT22;6504;53.766;9.626;2022-07-05T13:05:07;21.10;99.90
12872;DHT22;6504;53.766;9.626;2022-07-05T13:07:42;21.10;99.90
12872;DHT22;6504;53.766;9.626;2022-07-05T13:10:18;21.10;99.90
12872;DHT22;6504;53.766;9.626;2022-07-05T13:12:47;21.00;99.90
12872;DHT22;6504;53.766;9.626;2022-07-05T13:15:15;20.90;99.90
12872;DHT22;6504;53.766;9.626;2022-07-05T13:17:45;20.80;99.90
12872;DHT22;6504;53.766;9.626;2022-07-05T13:20:14;20.70;99.90
12872;DHT22;6504;53.766;9.626;2022-07-05T13:22:48;20.60;99.90
12872;DHT22;6504;53.766;9.626;2022-07-05T13:25:16;20.50;99.90
12872;DHT22;6504;53.766;9.626;2022-07-05T13:27:44;20.40;99.90
12872;DHT22;6504;53.766;9.626;2022-07-05T13:30:13;20.30;99.90
12872;DHT22;6504;53.766;9.626;2022-07-05T13:32:41;20.10;99.90
12872;DHT22;6504;53.766;9.626;2022-07-05T13:35:09;19.90;99.90
12872;DHT22;6504;53.766;9.626;2022-07-05T13:37:38;19.80;99.90
12872;DHT22;6504;53.766;9.626;2022-07-05T13:40:12;19.70;99.90
12872;DHT22;6504;53.766;9.626;2022-07-05T13:42:40;19.70;99.90
12872;DHT22;6504;53.766;9.626;2022-07-05T13:45:09;19.70;99.90
12872;DHT22;6504;53.766;9.626;2022-07-05T13:47:37;19.70;99.90
12872;DHT22;6504;53.766;9.626;2022-07-05T13:50:06;19.70;99.90
12872;DHT22;6504;53.766;9.626;2022-07-05T13:52:51;19.80;99.90
12872;DHT22;6504;53.766;9.626;2022-07-05T13:55:24;20.00;99.90
12872;DHT22;6504;53.766;9.626;2022-07-05T13:57:52;20.20;99.90
12872;DHT22;6504;53.766;9.626;2022-07-05T14:00:23;20.40;99.90
12872;DHT22;6504;53.766;9.626;2022-07-05T14:02:52;20.60;99.90
12872;DHT22;6504;53.766;9.626;2022-07-05T14:05:20;20.70;99.90
12872;DHT22;6504;53.766;9.626;2022-07-05T14:07:52;20.80;99.90
12872;DHT22;6504;53.766;9.626;2022-07-05T14:10:21;20.90;99.90
12872;DHT22;6504;53.766;9.626;2022-07-05T14:12:53;20.90;99.90
12872;DHT22;6504;53.766;9.626;2022-07-05T14:15:21;20.80;99.90
12872;DHT22;6504;53.766;9.626;2022-07-05T14:17:49;20.80;99.90
12872;DHT22;6504;53.766;9.626;2022-07-05T14:20:20;20.70;99.90
12872;DHT22;6504;53.766;9.626;2022-07-05T14:22:48;20.80;99.90
12872;DHT22;6504;53.766;9.626;2022-07-05T14:25:16;20.80;99.90
12872;DHT22;6504;53.766;9.626;2022-07-05T14:27:44;20.80;99.90
12872;DHT22;6504;53.766;9.626;2022-07-05T14:30:14;20.90;99.90
12872;DHT22;6504;53.766;9.626;2022-07-05T14:32:44;21.00;99.90
12872;DHT22;6504;53.766;9.626;2022-07-05T14:35:15;21.10;99.90
12872;DHT22;6504;53.766;9.626;2022-07-05T14:37:50;21.20;99.90
12872;DHT22;6504;53.766;9.626;2022-07-05T14:40:18;21.30;99.90
12872;DHT22;6504;53.766;9.626;2022-07-05T14:42:50;21.20;99.90
12872;DHT22;6504;53.766;9.626;2022-07-05T14:45:20;21.20;99.90
12872;DHT22;6504;53.766;9.626;2022-07-05T14:47:54;21.20;99.90
12872;DHT22;6504;53.766;9.626;2022-07-05T14:50:22;21.20;99.90
12872;DHT22;6504;53.766;9.626;2022-07-05T14:52:54;21.20;99.90
12872;DHT22;6504;53.766;9.626;2022-07-05T14:55:22;21.20;99.90
12872;DHT22;6504;53.766;9.626;2022-07-05T14:57:50;21.10;99.90
12872;DHT22;6504;53.766;9.626;2022-07-05T15:00:23;21.10;99.90
12872;DHT22;6504;53.766;9.626;2022-07-05T15:02:51;21.10;99.90
12872;DHT22;6504;53.766;9.626;2022-07-05T15:05:25;21.00;99.90
12872;DHT22;6504;53.766;9.626;2022-07-05T15:07:56;20.80;99.90
12872;DHT22;6504;53.766;9.626;2022-07-05T15:10:24;20.80;99.90
12872;DHT22;6504;53.766;9.626;2022-07-05T15:12:53;20.70;99.90
12872;DHT22;6504;53.766;9.626;2022-07-05T15:15:22;20.60;99.90
12872;DHT22;6504;53.766;9.626;2022-07-05T15:17:51;20.40;99.90
12872;DHT22;6504;53.766;9.626;2022-07-05T15:20:19;20.30;99.90
12872;DHT22;6504;53.766;9.626;2022-07-05T15:22:51;20.20;99.90
12872;DHT22;6504;53.766;9.626;2022-07-05T15:25:20;20.20;99.90
12872;DHT22;6504;53.766;9.626;2022-07-05T15:27:51;20.20;99.90
12872;DHT22;6504;53.766;9.626;2022-07-05T15:30:19;20.30;99.90
12872;DHT22;6504;53.766;9.626;2022-07-05T15:32:53;20.40;99.90
12872;DHT22;6504;53.766;9.626;2022-07-05T15:35:26;20.40;99.90
12872;DHT22;6504;53.766;9.626;2022-07-05T15:37:58;20.60;99.90
12872;DHT22;6504;53.766;9.626;2022-07-05T15:40:29;20.60;99.90
12872;DHT22;6504;53.766;9.626;2022-07-05T15:42:57;20.70;99.90
12872;DHT22;6504;53.766;9.626;2022-07-05T15:45:25;20.80;99.90
12872;DHT22;6504;53.766;9.626;2022-07-05T15:47:54;20.80;99.90
12872;DHT22;6504;53.766;9.626;2022-07-05T15:50:23;20.80;99.90
12872;DHT22;6504;53.766;9.626;2022-07-05T15:52:51;20.80;99.90
12872;DHT22;6504;53.766;9.626;2022-07-05T15:55:19;20.90;99.90
12872;DHT22;6504;53.766;9.626;2022-07-05T15:57:47;20.80;99.90
12872;DHT22;6504;53.766;9.626;2022-07-05T16:00:15;20.80;99.90
12872;DHT22;6504;53.766;9.626;2022-07-05T16:02:47;20.80;99.90
12872;DHT22;6504;53.766;9.626;2022-07-05T16:05:23;20.80;99.90
12872;DHT22;6504;53.766;9.626;2022-07-05T16:07:51;20.70;99.90
12872;DHT22;6504;53.766;9.626;2022-07-05T16:10:22;20.60;99.90
12872;DHT22;6504;53.766;9.626;2022-07-05T16:13:02;20.50;99.90
12872;DHT22;6504;53.766;9.626;2022-07-05T16:15:31;20.40;99.90